createdAt,value
2019-01-24T06:44:58.233Z,71.61
2019-01-24T06:45:57.973Z,71.51
2019-01-24T06:46:57.996Z,71.09
2019-01-24T06:47:57.969Z,71.19
2019-01-24T06:48:57.977Z,71.19
2019-01-24T06:50:08.251Z,70.88
2019-01-24T06:51:08.360Z,71.41
2019-01-24T06:51:57.905Z,71.30
2019-01-24T06:52:57.924Z,71.41
2019-01-24T06:53:57.962Z,71.72
2019-01-24T06:54:57.896Z,71.19
2019-01-24T06:55:57.878Z,71.72
2019-01-24T06:56:57.903Z,71.61
2019-01-24T06:57:57.857Z,71.80
2019-01-24T06:58:57.881Z,71.69
2019-01-24T06:59:57.829Z,71.61
2019-01-24T07:00:57.825Z,71.58
2019-01-24T07:01:57.822Z,71.72
2019-01-24T07:02:57.843Z,71.58
2019-01-24T07:03:57.793Z,71.48
2019-01-24T07:04:57.830Z,71.80
2019-01-24T07:05:57.780Z,71.48
2019-01-24T07:06:57.783Z,71.69
2019-01-24T07:07:57.879Z,71.69
2019-01-24T07:09:00.640Z,71.58
2019-01-24T07:09:58.406Z,71.37
2019-01-24T07:10:57.735Z,71.69
2019-01-24T07:11:57.723Z,71.48
2019-01-24T07:12:58.828Z,71.69
2019-01-24T07:13:58.720Z,71.69
2019-01-24T07:14:57.689Z,71.37
2019-01-24T07:15:57.684Z,71.58
2019-01-24T07:16:57.666Z,71.69
2019-01-24T07:17:57.637Z,71.69
2019-01-24T07:18:57.645Z,71.55
2019-01-24T07:19:57.634Z,71.66
2019-01-24T07:20:57.620Z,71.66
2019-01-24T07:21:57.614Z,71.55
2019-01-24T07:22:57.601Z,71.55
2019-01-24T07:23:57.622Z,71.55
2019-01-24T07:24:57.591Z,71.55
2019-01-24T07:25:57.608Z,71.45
2019-01-24T07:26:57.569Z,70.92
2019-01-24T07:27:57.563Z,71.13
2019-01-24T07:28:57.574Z,71.23
2019-01-24T07:29:57.552Z,70.81
2019-01-24T07:30:57.567Z,71.13
2019-01-24T07:31:57.526Z,71.45
2019-01-24T07:32:57.511Z,71.23
2019-01-24T07:33:57.495Z,71.13
2019-01-24T07:34:57.546Z,71.34
2019-01-24T07:36:02.172Z,71.13
2019-01-24T07:36:58.491Z,71.55
2019-01-24T07:37:57.446Z,71.45
2019-01-24T07:38:57.471Z,71.66
2019-01-24T07:39:57.431Z,71.45
2019-01-24T07:40:58.359Z,71.66
2019-01-24T07:41:57.440Z,71.87
2019-01-24T07:42:57.428Z,71.97
2019-01-24T07:43:57.404Z,72.18
2019-01-24T07:44:57.381Z,72.29
2019-01-24T07:45:57.414Z,72.39
2019-01-24T07:46:58.285Z,72.39
2019-01-24T07:47:57.358Z,71.97
2019-01-24T07:48:57.344Z,71.97
2019-01-24T07:49:57.390Z,72.50
2019-01-24T07:50:57.340Z,72.61
2019-01-24T07:51:57.311Z,72.61
2019-01-24T07:52:57.333Z,71.97
2019-01-24T07:53:57.298Z,71.66
2019-01-24T07:54:57.312Z,71.97
2019-01-24T07:55:57.298Z,72.50
2019-01-24T07:56:57.272Z,71.87
2019-01-24T07:57:57.282Z,71.97
2019-01-24T07:58:57.251Z,72.50
2019-01-24T07:59:57.234Z,71.87
2019-01-24T08:00:57.255Z,72.71
2019-01-24T08:01:57.285Z,71.23
2019-01-24T08:02:57.219Z,71.23
2019-01-24T08:03:57.208Z,71.13
2019-01-24T08:04:57.216Z,71.34
2019-01-24T08:05:57.167Z,71.23
2019-01-24T08:06:57.169Z,71.45
2019-01-24T08:07:57.172Z,71.66
2019-01-24T08:08:57.220Z,71.55
2019-01-24T08:09:57.142Z,71.13
2019-01-24T08:10:57.191Z,71.55
2019-01-24T08:11:57.111Z,71.66
2019-01-24T08:12:57.129Z,70.92
2019-01-24T08:13:57.099Z,71.13
2019-01-24T08:14:57.113Z,71.10
2019-01-24T08:15:57.102Z,70.71
2019-01-24T08:16:57.056Z,70.89
2019-01-24T08:17:57.078Z,70.99
2019-01-24T08:18:57.191Z,71.10
2019-01-24T08:19:57.039Z,70.67
2019-01-24T08:20:57.031Z,71.10
2019-01-24T08:21:57.324Z,71.20
2019-01-24T08:22:57.010Z,70.89
2019-01-24T08:23:57.019Z,71.13
2019-01-24T08:24:57.011Z,71.31
2019-01-24T08:25:57.011Z,70.57
2019-01-24T08:26:56.964Z,70.57
2019-01-24T08:27:57.055Z,70.89
2019-01-24T08:28:57.007Z,70.99
2019-01-24T08:29:56.943Z,71.10
2019-01-24T08:30:56.989Z,70.99
2019-01-24T08:31:56.910Z,71.41
2019-01-24T08:32:56.936Z,71.62
2019-01-24T08:33:57.869Z,71.55
2019-01-24T08:34:57.805Z,71.55
2019-01-24T08:35:56.989Z,71.55
2019-01-24T08:36:56.912Z,71.66
2019-01-24T08:37:57.008Z,71.55
2019-01-24T08:38:56.854Z,71.34
2019-01-24T08:39:56.863Z,71.55
2019-01-24T08:40:56.841Z,71.76
2019-01-24T08:41:56.823Z,71.55
2019-01-24T08:42:56.807Z,71.97
2019-01-24T08:43:56.782Z,71.55
2019-01-24T08:44:56.776Z,71.45
2019-01-24T08:45:56.831Z,71.45
2019-01-24T08:46:56.766Z,71.55
2019-01-24T08:47:56.774Z,71.76
2019-01-24T08:48:56.756Z,71.45
2019-01-24T08:49:56.748Z,71.34
2019-01-24T08:50:56.781Z,71.55
2019-01-24T08:51:56.742Z,71.31
2019-01-24T08:52:56.810Z,71.55
2019-01-24T08:53:56.699Z,71.73
2019-01-24T08:54:56.754Z,71.52
2019-01-24T08:55:56.712Z,71.55
2019-01-24T08:56:56.721Z,71.62
2019-01-24T08:57:56.663Z,71.52
2019-01-24T08:58:56.742Z,71.52
2019-01-24T08:59:56.663Z,71.52
2019-01-24T09:00:56.686Z,71.66
2019-01-24T09:01:56.618Z,71.41
2019-01-24T09:03:05.428Z,71.62
2019-01-24T09:03:56.619Z,71.41
2019-01-24T09:04:56.593Z,71.62
2019-01-24T09:05:56.596Z,71.73
2019-01-24T09:06:56.609Z,71.28
2019-01-24T09:07:56.671Z,70.15
2019-01-24T09:08:56.570Z,70.47
2019-01-24T09:09:57.316Z,71.20
2019-01-24T09:10:56.625Z,71.31
2019-01-24T09:11:56.860Z,70.47
2019-01-24T09:12:56.511Z,70.67
2019-01-24T09:13:56.879Z,70.99
2019-01-24T09:14:56.596Z,70.47
2019-01-24T09:15:56.603Z,71.20
2019-01-24T09:16:56.520Z,70.78
2019-01-24T09:17:56.639Z,70.67
2019-01-24T09:18:56.571Z,71.10
2019-01-24T09:19:56.525Z,71.17
2019-01-24T09:20:56.956Z,71.20
2019-01-24T09:21:56.431Z,70.96
2019-01-24T09:22:56.418Z,71.17
2019-01-24T09:23:56.539Z,70.36
2019-01-24T09:24:56.434Z,70.57
2019-01-24T09:25:56.383Z,71.10
2019-01-24T09:26:56.411Z,71.20
2019-01-24T09:27:56.423Z,70.67
2019-01-24T09:28:56.355Z,71.20
2019-01-24T09:29:56.413Z,71.10
2019-01-24T09:30:56.354Z,71.06
2019-01-24T09:31:56.328Z,70.75
2019-01-24T09:32:56.400Z,71.06
2019-01-24T09:33:56.815Z,70.89
2019-01-24T09:34:56.444Z,70.67
2019-01-24T09:35:56.408Z,70.86
2019-01-24T09:36:56.285Z,71.06
2019-01-24T09:37:56.360Z,70.33
2019-01-24T09:38:56.255Z,70.43
2019-01-24T09:39:56.278Z,70.22
2019-01-24T09:40:56.348Z,70.22
2019-01-24T09:41:56.279Z,70.43
2019-01-24T09:42:56.265Z,70.33
2019-01-24T09:43:56.230Z,70.40
2019-01-24T09:44:56.332Z,69.80
2019-01-24T09:45:56.208Z,70.43
2019-01-24T09:46:56.258Z,69.59
2019-01-24T09:47:56.197Z,69.67
2019-01-24T09:48:56.274Z,69.77
2019-01-24T09:49:56.514Z,69.70
2019-01-24T09:50:56.313Z,69.77
2019-01-24T09:51:56.179Z,70.01
2019-01-24T09:52:56.532Z,69.98
2019-01-24T09:53:56.277Z,69.14
2019-01-24T09:54:56.165Z,69.07
2019-01-24T09:55:56.173Z,69.38
2019-01-24T09:56:56.220Z,69.24
2019-01-24T09:57:56.189Z,68.96
2019-01-24T09:58:56.319Z,69.91
2019-01-24T09:59:56.077Z,69.91
2019-01-24T10:00:56.056Z,69.17
2019-01-24T10:01:56.829Z,69.17
2019-01-24T10:02:56.119Z,69.38
2019-01-24T10:03:56.119Z,69.49
2019-01-24T10:04:56.013Z,68.96
2019-01-24T10:05:56.121Z,69.07
2019-01-24T10:08:13.419Z,68.93
2019-01-24T10:10:31.967Z,68.40
2019-01-24T10:11:41.219Z,68.82
2019-01-24T10:15:40.530Z,67.85
2019-01-24T10:18:09.999Z,68.48
2019-01-24T10:19:19.355Z,68.37
2019-01-24T10:20:19.899Z,68.30
2019-01-24T10:21:09.879Z,67.85
2019-01-24T10:23:39.161Z,67.95
2019-01-24T10:24:39.067Z,67.11
2019-01-24T10:25:39.155Z,67.32
2019-01-24T10:26:39.118Z,67.35
2019-01-24T10:27:39.081Z,67.24
2019-01-24T10:28:39.045Z,67.24
2019-01-24T10:29:39.111Z,67.56
2019-01-24T10:30:42.938Z,67.46
2019-01-24T10:31:39.119Z,68.19
2019-01-24T10:32:39.088Z,68.51
2019-01-24T10:33:39.035Z,67.77
2019-01-24T10:34:39.183Z,67.14
2019-01-24T10:35:39.145Z,67.77
2019-01-24T10:36:43.004Z,68.51
2019-01-24T10:37:38.997Z,68.65
2019-01-24T10:38:39.264Z,68.30
2019-01-24T10:39:39.124Z,68.12
2019-01-24T10:40:39.571Z,68.12
2019-01-24T10:41:39.385Z,68.43
2019-01-24T10:42:39.091Z,68.54
2019-01-24T10:43:39.184Z,68.75
2019-01-24T10:44:38.961Z,68.30
2019-01-24T10:45:39.515Z,67.98
2019-01-24T10:46:39.515Z,68.51
2019-01-24T10:47:38.917Z,68.51
2019-01-24T10:48:39.085Z,68.51
2019-01-24T10:49:38.929Z,68.30
2019-01-24T10:50:38.847Z,68.30
2019-01-24T10:51:38.998Z,68.72
2019-01-24T10:52:38.960Z,68.82
2019-01-24T10:53:38.847Z,68.54
2019-01-24T10:54:38.856Z,68.61
2019-01-24T10:55:38.778Z,68.23
2019-01-24T10:56:38.797Z,67.66
2019-01-24T10:57:39.516Z,68.19
2019-01-24T10:58:38.792Z,67.88
2019-01-24T10:59:38.775Z,67.98
2019-01-24T11:00:38.805Z,68.19
2019-01-24T11:01:39.534Z,68.51
2019-01-24T11:02:38.768Z,67.98
2019-01-24T11:03:38.756Z,68.40
2019-01-24T11:04:38.665Z,68.51
2019-01-24T11:05:38.668Z,67.98
2019-01-24T11:06:38.656Z,67.85
2019-01-24T11:07:38.665Z,67.88
2019-01-24T11:08:38.706Z,67.66
2019-01-24T11:09:38.616Z,68.72
2019-01-24T11:10:38.610Z,68.40
2019-01-24T11:11:38.631Z,68.30
2019-01-24T11:12:38.599Z,67.98
2019-01-24T11:13:38.601Z,67.66
2019-01-24T11:14:38.602Z,67.98
2019-01-24T11:15:39.515Z,68.33
2019-01-24T11:16:38.565Z,69.03
2019-01-24T11:17:39.517Z,69.24
2019-01-24T11:18:38.524Z,68.61
2019-01-24T11:19:38.540Z,68.85
2019-01-24T11:20:38.525Z,69.24
2019-01-24T11:21:38.529Z,69.24
2019-01-24T11:22:38.555Z,69.24
2019-01-24T11:23:38.544Z,68.85
2019-01-24T11:24:38.548Z,69.07
2019-01-24T11:25:39.017Z,69.27
2019-01-24T11:26:38.688Z,69.27
2019-01-24T11:27:38.458Z,69.17
2019-01-24T11:28:39.014Z,70.01
2019-01-24T11:29:38.571Z,69.59
2019-01-24T11:30:38.536Z,69.62
2019-01-24T11:31:38.554Z,70.67
2019-01-24T11:32:38.444Z,70.22
2019-01-24T11:33:38.421Z,69.80
2019-01-24T11:34:38.543Z,69.94
2019-01-24T11:35:38.504Z,69.94
2019-01-24T11:38:05.217Z,69.83
2019-01-24T11:39:05.055Z,69.80
2019-01-24T11:40:05.085Z,69.91
2019-01-24T11:41:05.041Z,70.12
2019-01-24T11:42:05.638Z,70.43
2019-01-24T11:43:05.066Z,69.91
2019-01-24T11:44:05.026Z,69.91
2019-01-24T11:45:04.998Z,70.33
2019-01-24T11:46:04.989Z,70.64
2019-01-24T11:47:05.029Z,70.86
2019-01-24T11:48:14.711Z,70.57
2019-01-24T11:49:05.059Z,70.22
2019-01-24T11:50:05.014Z,69.70
2019-01-24T11:51:04.960Z,69.73
2019-01-24T11:52:05.018Z,70.25
2019-01-24T11:53:05.788Z,69.73
2019-01-24T11:54:04.912Z,70.67
2019-01-24T11:55:04.884Z,70.25
2019-01-24T11:56:06.244Z,70.57
2019-01-24T11:57:04.939Z,69.94
2019-01-24T11:58:04.899Z,70.67
2019-01-24T11:59:04.884Z,70.39
2019-01-24T12:00:04.907Z,71.03
2019-01-24T12:01:04.920Z,70.92
2019-01-24T12:02:04.879Z,71.34
2019-01-24T12:03:04.796Z,71.55
2019-01-24T12:04:04.825Z,71.45
2019-01-24T12:05:04.905Z,71.55
2019-01-24T12:06:04.805Z,72.39
2019-01-24T12:07:04.818Z,72.08
2019-01-24T12:08:14.327Z,71.76
2019-01-24T12:09:04.975Z,71.66
2019-01-24T12:10:04.734Z,72.81
2019-01-24T12:11:16.482Z,72.08
2019-01-24T12:12:04.961Z,72.11
2019-01-24T12:13:04.837Z,71.69
2019-01-24T12:14:04.915Z,71.69
2019-01-24T12:15:04.699Z,72.53
2019-01-24T12:16:04.712Z,72.64
2019-01-24T12:17:14.690Z,73.16
2019-01-24T12:18:04.786Z,73.16
2019-01-24T12:19:04.749Z,73.58
2019-01-24T12:20:14.581Z,73.41
2019-01-24T12:21:13.805Z,73.72
2019-01-24T12:22:04.630Z,75.10
2019-01-24T12:23:04.761Z,74.15
2019-01-24T12:24:04.839Z,73.83
2019-01-24T12:25:04.614Z,74.04
2019-01-24T12:26:04.662Z,74.04
2019-01-24T12:27:04.680Z,73.72
2019-01-24T12:28:07.522Z,73.86
2019-01-24T12:29:04.626Z,74.07
2019-01-24T12:30:04.607Z,74.92
2019-01-24T12:31:04.627Z,75.10
2019-01-24T12:32:04.524Z,74.81
2019-01-24T12:33:04.528Z,75.66
2019-01-24T12:34:04.502Z,75.76
2019-01-24T12:35:04.553Z,74.46
2019-01-24T12:36:04.502Z,74.68
2019-01-24T12:38:23.985Z,74.71
2019-01-24T12:39:31.061Z,74.39
2019-01-24T12:40:23.021Z,75.87
2019-01-24T12:41:33.305Z,75.34
2019-01-24T12:42:23.094Z,74.81
2019-01-24T12:43:23.132Z,75.34
2019-01-24T12:44:22.881Z,75.13
2019-01-24T12:45:22.893Z,75.34
2019-01-24T12:46:22.890Z,75.24
2019-01-24T12:47:23.101Z,75.24
2019-01-24T12:48:22.903Z,74.71
2019-01-24T12:49:22.979Z,75.24
2019-01-24T12:50:33.010Z,75.02
2019-01-24T12:51:22.842Z,75.98
2019-01-24T12:52:22.971Z,75.76
2019-01-24T12:53:22.799Z,75.76
2019-01-24T12:54:22.768Z,74.81
2019-01-24T12:55:22.956Z,74.39
2019-01-24T12:56:22.855Z,75.02
2019-01-24T12:57:22.842Z,75.06
2019-01-24T12:58:23.616Z,75.37
2019-01-24T12:59:22.826Z,75.06
2019-01-24T13:00:22.883Z,75.02
2019-01-24T13:01:22.738Z,75.02
2019-01-24T13:02:23.172Z,75.16
2019-01-24T13:03:22.757Z,74.81
2019-01-24T13:04:23.223Z,74.74
2019-01-24T13:05:22.758Z,74.71
2019-01-24T13:06:22.781Z,75.13
2019-01-24T13:07:22.789Z,75.55
2019-01-24T13:08:22.716Z,75.13
2019-01-24T13:09:23.226Z,74.81
2019-01-24T13:10:23.226Z,75.45
2019-01-24T13:11:23.721Z,74.92
2019-01-24T13:12:22.681Z,75.45
2019-01-24T13:13:22.994Z,75.24
2019-01-24T13:15:51.456Z,73.86
2019-01-24T13:16:52.248Z,73.86
2019-01-24T13:17:51.374Z,74.29
2019-01-24T13:18:51.498Z,73.86
2019-01-24T13:20:00.909Z,74.21
2019-01-24T13:22:31.260Z,74.01
2019-01-24T13:23:31.254Z,74.85
2019-01-24T13:24:31.977Z,74.53
2019-01-24T13:25:31.175Z,75.06
2019-01-24T13:26:31.131Z,75.59
2019-01-24T13:27:31.521Z,74.63
2019-01-24T13:28:31.978Z,74.32
2019-01-24T13:29:40.570Z,74.74
2019-01-24T13:30:31.066Z,74.74
2019-01-24T13:31:31.073Z,73.65
2019-01-24T13:32:31.053Z,73.27
2019-01-24T13:33:31.044Z,74.32
2019-01-24T13:34:31.064Z,73.58
2019-01-24T13:35:31.017Z,73.58
2019-01-24T13:36:31.003Z,73.27
2019-01-24T13:37:31.016Z,73.90
2019-01-24T13:38:30.991Z,74.01
2019-01-24T13:39:31.020Z,74.11
2019-01-24T13:40:31.031Z,74.11
2019-01-24T13:41:30.985Z,75.06
2019-01-24T13:42:30.978Z,74.95
2019-01-24T13:43:30.950Z,74.21
2019-01-24T13:44:31.504Z,74.01
2019-01-24T13:46:22.636Z,74.21
2019-01-24T13:47:22.622Z,73.79
2019-01-24T13:48:22.599Z,73.23
2019-01-24T13:49:22.583Z,73.23
2019-01-24T13:50:22.563Z,73.23
2019-01-24T13:51:22.579Z,73.65
2019-01-24T13:52:22.541Z,73.23
2019-01-24T13:53:22.566Z,73.02
2019-01-24T13:54:22.527Z,73.23
2019-01-24T13:55:22.529Z,72.91
2019-01-24T13:56:32.657Z,72.71
2019-01-24T13:57:22.536Z,73.13
2019-01-24T13:58:22.534Z,73.02
2019-01-24T13:59:22.514Z,73.55
2019-01-24T14:00:22.522Z,73.55
2019-01-24T14:01:22.546Z,73.65
2019-01-24T14:02:22.640Z,73.55
2019-01-24T14:03:22.457Z,73.02
2019-01-24T14:04:22.479Z,72.39
2019-01-24T14:05:22.627Z,73.02
2019-01-24T14:06:22.467Z,73.02
2019-01-24T14:07:22.541Z,73.23
2019-01-24T14:08:22.443Z,73.33
2019-01-24T14:09:22.450Z,73.65
2019-01-24T14:10:22.409Z,73.55
2019-01-24T14:11:22.388Z,73.44
2019-01-24T14:12:22.408Z,73.33
2019-01-24T14:13:22.451Z,73.86
2019-01-24T14:14:22.428Z,73.30
2019-01-24T14:15:22.392Z,73.76
2019-01-24T14:16:22.347Z,73.55
2019-01-24T14:17:22.432Z,73.52
2019-01-24T14:18:22.344Z,73.33
2019-01-24T14:19:22.404Z,73.65
2019-01-24T14:20:22.378Z,73.55
2019-01-24T14:21:22.295Z,73.86
2019-01-24T14:22:22.273Z,74.92
2019-01-24T14:23:22.331Z,74.39
2019-01-24T14:24:22.324Z,73.76
2019-01-24T14:25:22.268Z,75.13
2019-01-24T14:26:22.267Z,75.02
2019-01-24T14:27:22.256Z,75.55
2019-01-24T14:28:22.266Z,75.37
2019-01-24T14:29:22.260Z,76.50
2019-01-24T14:30:22.252Z,76.82
2019-01-24T14:31:22.195Z,76.82
2019-01-24T14:32:22.229Z,76.72
2019-01-24T14:33:22.181Z,76.29
2019-01-24T14:34:22.149Z,76.82
2019-01-24T14:35:22.119Z,76.82
2019-01-24T14:36:25.446Z,76.40
2019-01-24T14:37:22.171Z,76.72
2019-01-24T14:38:22.162Z,76.82
2019-01-24T14:39:22.164Z,76.92
2019-01-24T14:40:22.944Z,76.43
2019-01-24T14:41:22.146Z,76.54
2019-01-24T14:42:22.088Z,75.59
2019-01-24T14:43:22.104Z,75.80
2019-01-24T14:44:22.057Z,75.59
2019-01-24T14:45:22.079Z,75.59
2019-01-24T14:46:22.033Z,76.32
2019-01-24T14:47:22.018Z,76.32
2019-01-24T14:48:22.069Z,76.75
2019-01-24T14:49:22.062Z,76.75
2019-01-24T14:50:22.137Z,76.86
2019-01-24T14:51:22.050Z,76.86
2019-01-24T14:52:22.945Z,76.64
2019-01-24T14:53:21.966Z,76.32
2019-01-24T14:54:22.018Z,76.43
2019-01-24T14:55:21.973Z,76.96
2019-01-24T14:56:21.996Z,76.22
2019-01-24T14:57:21.940Z,76.32
2019-01-24T14:58:21.989Z,76.54
2019-01-24T14:59:22.016Z,76.22
2019-01-24T15:00:21.904Z,76.01
2019-01-24T15:01:21.898Z,76.43
2019-01-24T15:02:21.923Z,76.22
2019-01-24T15:03:21.877Z,76.29
2019-01-24T15:04:21.843Z,76.43
2019-01-24T15:05:21.841Z,76.43
2019-01-24T15:06:21.837Z,76.82
2019-01-24T15:07:21.844Z,76.54
2019-01-24T15:08:21.860Z,76.72
2019-01-24T15:09:21.886Z,76.72
2019-01-24T15:10:21.848Z,77.06
2019-01-24T15:11:22.159Z,76.96
2019-01-24T15:12:21.858Z,77.17
2019-01-24T15:13:21.779Z,77.28
2019-01-24T15:14:21.798Z,77.38
2019-01-24T15:15:21.881Z,77.06
2019-01-24T15:16:21.728Z,76.86
2019-01-24T15:17:21.736Z,77.28
2019-01-24T15:18:21.856Z,77.38
2019-01-24T15:19:21.722Z,77.59
2019-01-24T15:20:21.694Z,77.34
2019-01-24T15:21:21.688Z,77.24
2019-01-24T15:22:21.692Z,77.80
2019-01-24T15:23:22.445Z,78.08
2019-01-24T15:24:21.680Z,77.98
2019-01-24T15:25:21.669Z,77.80
2019-01-24T15:26:21.672Z,77.87
2019-01-24T15:27:21.703Z,78.30
2019-01-24T15:28:21.682Z,78.54
2019-01-24T15:29:21.605Z,78.51
2019-01-24T15:30:21.652Z,78.51
2019-01-24T15:31:21.619Z,78.30
2019-01-24T15:32:21.604Z,78.19
2019-01-24T15:33:21.705Z,78.82
2019-01-24T15:34:21.577Z,78.61
2019-01-24T15:35:21.554Z,78.82
2019-01-24T15:36:32.196Z,78.61
2019-01-24T15:37:31.179Z,78.61
2019-01-24T15:38:21.560Z,79.14
2019-01-24T15:39:29.768Z,79.14
2019-01-24T15:40:30.756Z,79.03
2019-01-24T15:41:21.489Z,78.93
2019-01-24T15:42:21.480Z,79.14
2019-01-24T15:43:21.484Z,79.03
2019-01-24T15:44:21.462Z,78.82
2019-01-24T15:45:21.418Z,78.82
2019-01-24T15:46:30.621Z,78.72
2019-01-24T15:47:21.444Z,79.35
2019-01-24T15:48:21.389Z,79.67
2019-01-24T15:49:21.423Z,78.93
2019-01-24T15:50:21.349Z,79.25
2019-01-24T15:51:21.348Z,79.25
2019-01-24T15:52:21.373Z,78.82
2019-01-24T15:53:21.363Z,79.25
2019-01-24T15:54:21.341Z,79.25
2019-01-24T15:55:21.327Z,79.25
2019-01-24T15:56:21.323Z,79.77
2019-01-24T15:57:21.322Z,79.77
2019-01-24T15:58:21.457Z,80.09
2019-01-24T15:59:21.441Z,80.51
2019-01-24T16:00:21.308Z,79.99
2019-01-24T16:01:21.373Z,80.62
2019-01-24T16:02:21.350Z,80.83
2019-01-24T16:03:21.299Z,80.09
2019-01-24T16:04:21.423Z,80.09
2019-01-24T16:05:21.245Z,80.51
2019-01-24T16:06:21.241Z,80.41
2019-01-24T16:07:21.224Z,80.73
2019-01-24T16:08:21.218Z,80.73
2019-01-24T16:09:21.239Z,80.62
2019-01-24T16:10:21.212Z,80.62
2019-01-24T16:11:21.195Z,80.09
2019-01-24T16:12:21.232Z,80.41
2019-01-24T16:13:21.151Z,80.73
2019-01-24T16:14:21.147Z,80.83
2019-01-24T16:15:21.231Z,80.83
2019-01-24T16:16:21.114Z,80.19
2019-01-24T16:17:21.196Z,80.09
2019-01-24T16:18:21.109Z,80.87
2019-01-24T16:19:21.072Z,80.51
2019-01-24T16:20:21.077Z,80.83
2019-01-24T16:21:21.069Z,80.41
2019-01-24T16:22:21.077Z,80.83
2019-01-24T16:23:21.066Z,80.73
2019-01-24T16:24:21.141Z,80.83
2019-01-24T16:25:21.105Z,79.56
2019-01-24T16:26:21.029Z,79.67
2019-01-24T16:27:21.025Z,79.46
2019-01-24T16:28:24.743Z,79.88
2019-01-24T16:29:20.987Z,79.35
2019-01-24T16:30:21.077Z,79.56
2019-01-24T16:31:20.969Z,79.25
2019-01-24T16:32:20.996Z,78.93
2019-01-24T16:33:20.989Z,78.93
2019-01-24T16:34:21.016Z,79.25
2019-01-24T16:35:20.960Z,79.25
2019-01-24T16:36:21.768Z,78.72
2019-01-24T16:37:20.958Z,78.82
2019-01-24T16:38:20.945Z,78.93
2019-01-24T16:39:20.892Z,78.82
2019-01-24T16:40:20.903Z,78.82
2019-01-24T16:41:20.873Z,78.93
2019-01-24T16:42:20.947Z,78.93
2019-01-24T16:43:20.883Z,79.03
2019-01-24T16:44:20.928Z,79.03
2019-01-24T16:45:20.837Z,79.14
2019-01-24T16:46:20.881Z,79.03
2019-01-24T16:47:20.823Z,79.14
2019-01-24T16:48:20.805Z,79.67
2019-01-24T16:49:20.818Z,78.82
2019-01-24T16:50:20.802Z,79.21
2019-01-24T16:51:21.711Z,79.03
2019-01-24T16:52:20.765Z,78.72
2019-01-24T16:53:20.741Z,78.72
2019-01-24T16:54:20.830Z,78.19
2019-01-24T16:55:20.748Z,78.40
2019-01-24T16:56:20.763Z,78.19
2019-01-24T16:57:20.856Z,78.05
2019-01-24T16:58:20.971Z,77.84
2019-01-24T16:59:20.716Z,77.94
2019-01-24T17:00:20.715Z,77.94
2019-01-24T17:01:20.660Z,78.26
2019-01-24T17:02:20.676Z,78.16
2019-01-24T17:03:20.698Z,77.84
2019-01-24T17:04:20.706Z,77.42
2019-01-24T17:05:20.679Z,77.42
2019-01-24T17:06:20.746Z,77.10
2019-01-24T17:07:20.772Z,77.20
2019-01-24T17:08:20.633Z,77.20
2019-01-24T17:09:21.553Z,77.31
2019-01-24T17:10:20.688Z,77.73
2019-01-24T17:11:20.739Z,77.63
2019-01-24T17:12:20.554Z,77.73
2019-01-24T17:13:20.565Z,77.52
2019-01-24T17:14:22.396Z,77.63
2019-01-24T17:15:20.525Z,77.84
2019-01-24T17:16:20.514Z,77.73
2019-01-24T17:17:20.542Z,77.34
2019-01-24T17:18:20.668Z,77.52
2019-01-24T17:19:20.532Z,77.52
2019-01-24T17:20:20.481Z,77.66
2019-01-24T17:21:20.519Z,77.24
2019-01-24T17:22:20.698Z,77.20
2019-01-24T17:23:20.638Z,77.45
2019-01-24T17:24:20.532Z,77.45
2019-01-24T17:25:20.491Z,77.66
2019-01-24T17:26:20.492Z,77.20
2019-01-24T17:27:20.590Z,77.45
2019-01-24T17:28:20.532Z,77.66
2019-01-24T17:29:20.500Z,77.45
2019-01-24T17:30:20.416Z,77.45
2019-01-24T17:31:20.377Z,77.66
2019-01-24T17:32:20.396Z,78.08
2019-01-24T17:33:20.393Z,78.08
2019-01-24T17:34:20.335Z,78.30
2019-01-24T17:35:20.357Z,78.30
2019-01-24T17:36:20.313Z,78.19
2019-01-24T17:37:20.328Z,78.08
2019-01-24T17:38:23.790Z,78.19
2019-01-24T17:39:20.291Z,78.08
2019-01-24T17:40:20.274Z,78.05
2019-01-24T17:41:20.537Z,78.19
2019-01-24T17:42:20.263Z,78.16
2019-01-24T17:43:20.264Z,77.98
2019-01-24T17:44:20.223Z,77.42
2019-01-24T17:45:20.322Z,77.14
2019-01-24T17:46:20.204Z,77.14
2019-01-24T17:47:20.193Z,77.24
2019-01-24T17:48:20.221Z,77.24
2019-01-24T17:49:20.195Z,77.42
2019-01-24T17:50:20.178Z,77.45
2019-01-24T17:51:20.156Z,77.31
2019-01-24T17:52:20.135Z,77.24
2019-01-24T17:53:20.134Z,77.24
2019-01-24T17:54:20.305Z,76.89
2019-01-24T17:55:20.124Z,76.78
2019-01-24T17:56:20.115Z,77.10
2019-01-24T17:57:20.986Z,76.78
2019-01-24T17:58:20.097Z,77.10
2019-01-24T17:59:21.056Z,77.31
2019-01-24T18:00:20.130Z,76.92
2019-01-24T18:01:20.123Z,77.00
2019-01-24T18:02:20.070Z,76.57
2019-01-24T18:03:20.047Z,76.78
2019-01-24T18:04:21.795Z,76.46
2019-01-24T18:05:20.110Z,76.89
2019-01-24T18:06:20.131Z,77.00
2019-01-24T18:07:20.176Z,77.00
2019-01-24T18:08:20.095Z,77.00
2019-01-24T18:09:20.204Z,76.57
2019-01-24T18:10:20.416Z,76.57
2019-01-24T18:11:20.505Z,77.20
2019-01-24T18:12:20.151Z,77.03
2019-01-24T18:13:20.300Z,77.20
2019-01-24T18:14:20.032Z,77.31
2019-01-24T18:15:20.026Z,77.52
2019-01-24T18:16:20.094Z,77.63
2019-01-24T18:17:20.556Z,77.10
2019-01-24T18:18:20.017Z,76.78
2019-01-24T18:19:20.114Z,76.78
2019-01-24T18:20:19.928Z,76.78
2019-01-24T18:21:19.887Z,76.78
2019-01-24T18:22:19.859Z,76.68
2019-01-24T18:23:20.556Z,76.68
2019-01-24T18:24:19.943Z,76.89
2019-01-24T18:25:19.903Z,76.78
2019-01-24T18:26:19.855Z,77.31
2019-01-24T18:27:19.791Z,77.14
2019-01-24T18:28:19.961Z,77.14
2019-01-24T18:29:19.983Z,77.10
2019-01-24T18:30:19.855Z,77.34
2019-01-24T18:31:19.871Z,77.14
2019-01-24T18:32:19.793Z,77.34
2019-01-24T18:33:19.887Z,77.45
2019-01-24T18:34:19.734Z,77.42
2019-01-24T18:35:19.891Z,77.56
2019-01-24T18:36:21.071Z,77.20
2019-01-24T18:37:19.777Z,77.14
2019-01-24T18:38:19.802Z,77.34
2019-01-24T18:39:19.734Z,77.34
2019-01-24T18:40:19.702Z,76.82
2019-01-24T18:41:19.683Z,77.24
2019-01-24T18:42:19.647Z,77.34
2019-01-24T18:43:19.846Z,77.14
2019-01-24T18:44:19.631Z,76.82
2019-01-24T18:45:19.677Z,76.82
2019-01-24T18:46:19.616Z,77.10
2019-01-24T18:47:19.648Z,77.03
2019-01-24T18:48:19.690Z,77.03
2019-01-24T18:49:19.577Z,76.89
2019-01-24T18:50:19.619Z,77.03
2019-01-24T18:51:19.570Z,76.78
2019-01-24T18:52:19.606Z,77.00
2019-01-24T18:53:19.574Z,77.03
2019-01-24T18:54:19.554Z,77.03
2019-01-24T18:55:19.528Z,77.03
2019-01-24T18:56:19.505Z,76.92
2019-01-24T18:57:19.509Z,77.24
2019-01-24T18:58:19.491Z,77.20
2019-01-24T18:59:19.529Z,77.31
2019-01-24T19:00:19.566Z,77.03
2019-01-24T19:01:19.493Z,77.24
2019-01-24T19:02:19.513Z,76.82
2019-01-24T19:03:19.492Z,77.34
2019-01-24T19:04:19.489Z,76.92
2019-01-24T19:06:36.912Z,76.72
2019-01-24T19:07:47.200Z,76.46
2019-01-24T19:08:36.870Z,76.50
2019-01-24T19:09:36.871Z,76.29
2019-01-24T19:10:36.808Z,76.46
2019-01-24T19:11:36.774Z,76.40
2019-01-24T19:12:36.780Z,76.78
2019-01-24T19:13:36.763Z,76.78
2019-01-24T19:14:37.974Z,77.03
2019-01-24T19:15:37.638Z,77.03
2019-01-24T19:16:37.636Z,76.46
2019-01-24T19:17:48.255Z,76.26
2019-01-24T19:18:36.748Z,76.26
2019-01-24T19:19:36.723Z,76.36
2019-01-24T19:20:36.752Z,76.15
2019-01-24T19:21:36.731Z,76.26
2019-01-24T19:22:36.674Z,76.36
2019-01-24T19:23:36.695Z,76.46
2019-01-24T19:24:36.674Z,75.84
2019-01-24T19:25:36.688Z,75.52
2019-01-24T19:26:38.164Z,76.26
2019-01-24T19:27:36.635Z,76.26
2019-01-24T19:28:36.673Z,75.62
2019-01-24T19:29:36.615Z,75.84
2019-01-24T19:30:36.699Z,75.73
2019-01-24T19:31:37.793Z,75.62
2019-01-24T19:32:36.615Z,76.36
2019-01-24T19:33:36.596Z,76.36
2019-01-24T19:34:36.615Z,75.42
2019-01-24T19:35:36.575Z,75.52
2019-01-24T19:36:36.642Z,75.52
2019-01-24T19:37:36.563Z,75.62
2019-01-24T19:38:36.593Z,75.10
2019-01-24T19:39:36.554Z,75.42
2019-01-24T19:40:36.608Z,75.31
2019-01-24T19:41:37.102Z,75.10
2019-01-24T19:42:36.498Z,74.99
2019-01-24T19:43:36.519Z,74.99
2019-01-24T19:44:36.497Z,74.88
2019-01-24T19:45:36.452Z,74.78
2019-01-24T19:46:36.548Z,75.31
2019-01-24T19:47:36.517Z,74.88
2019-01-24T19:48:36.451Z,75.73
2019-01-24T19:49:36.435Z,76.08
2019-01-24T19:50:36.511Z,75.52
2019-01-24T19:51:36.467Z,76.04
2019-01-24T19:52:36.545Z,76.18
2019-01-24T19:53:36.456Z,76.68